KOW71 KPWA-KAEG
Flight info
| Callsign | KOW71 |
|---|---|
| Flight time | 1h 25m |
| Altitude | 47000 |
| Route | OLGUY3 YOUSE PNH TCC MIERA2 |
| Aircraft | C750/M-SBDE3FGHRWXY/S |
Departure
| Time | 2026-05-07 03:34 |
|---|---|
| Airport | Wiley Post Airport (KPWA) |
Arrival
| Time | 2026-05-07 04:59 |
|---|---|
| Airport | Double Eagle II Airport (KAEG) |
| Time | Latitude | Longitude | Altitude | Speed | Heading |
|---|---|---|---|---|---|
| 2026-05-07 03:29 | 35.52659 | -97.64551 | 1304 ft | 0 kts | 0° |
| 2026-05-07 03:34 | 35.52671 | -97.64551 | 1304 ft | 18 kts | 360° |
| 2026-05-07 03:34 | 35.53210 | -97.64556 | 1301 ft | 129 kts | 359° |
| 2026-05-07 03:34 | 35.54290 | -97.64568 | 1684 ft | 183 kts | 360° |
| 2026-05-07 03:34 | 35.55750 | -97.64588 | 2330 ft | 224 kts | 360° |
| 2026-05-07 03:35 | 35.57328 | -97.65207 | 2702 ft | 259 kts | 326° |
| 2026-05-07 03:35 | 35.58320 | -97.67043 | 3738 ft | 262 kts | 287° |
| 2026-05-07 03:35 | 35.58313 | -97.69021 | 4619 ft | 275 kts | 258° |
| 2026-05-07 03:36 | 35.58219 | -97.69383 | 4766 ft | 276 kts | 252° |
| 2026-05-07 03:36 | 35.58216 | -97.69395 | 4771 ft | 276 kts | 252° |
| 2026-05-07 03:38 | 35.57279 | -97.71155 | 5809 ft | 273 kts | 231° |
| 2026-05-07 03:38 | 35.56025 | -97.72884 | 6980 ft | 271 kts | 230° |
| 2026-05-07 03:38 | 35.54901 | -97.74800 | 7854 ft | 281 kts | 240° |
| 2026-05-07 03:38 | 35.54003 | -97.76906 | 9057 ft | 278 kts | 245° |
| 2026-05-07 03:39 | 35.53133 | -97.79038 | 10110 ft | 281 kts | 245° |
| 2026-05-07 03:39 | 35.52162 | -97.81172 | 10767 ft | 297 kts | 243° |
| 2026-05-07 03:39 | 35.51056 | -97.83455 | 10965 ft | 324 kts | 242° |
| 2026-05-07 03:39 | 35.49881 | -97.85895 | 11485 ft | 335 kts | 243° |
| 2026-05-07 03:40 | 35.48728 | -97.88363 | 12441 ft | 332 kts | 243° |
| 2026-05-07 03:40 | 35.47596 | -97.90832 | 13300 ft | 332 kts | 244° |
| 2026-05-07 03:40 | 35.46452 | -97.93312 | 14111 ft | 334 kts | 244° |
| 2026-05-07 03:40 | 35.45431 | -97.95497 | 14757 ft | 336 kts | 243° |
| 2026-05-07 03:41 | 35.44607 | -97.97236 | 15499 ft | 329 kts | 243° |
| 2026-05-07 03:41 | 35.43457 | -97.99645 | 16437 ft | 328 kts | 243° |
| 2026-05-07 03:42 | 35.42301 | -98.02124 | 16816 ft | 341 kts | 244° |
| 2026-05-07 03:42 | 35.41135 | -98.04659 | 17569 ft | 343 kts | 244° |
| 2026-05-07 03:42 | 35.39949 | -98.07214 | 18273 ft | 346 kts | 243° |
| 2026-05-07 03:42 | 35.38774 | -98.09790 | 19020 ft | 347 kts | 245° |
| 2026-05-07 03:43 | 35.37880 | -98.12517 | 19832 ft | 345 kts | 253° |
| 2026-05-07 03:43 | 35.37309 | -98.15372 | 20713 ft | 343 kts | 259° |
| 2026-05-07 03:43 | 35.37075 | -98.18276 | 21577 ft | 343 kts | 265° |
| 2026-05-07 03:43 | 35.37127 | -98.21215 | 22400 ft | 344 kts | 269° |
| 2026-05-07 03:44 | 35.37230 | -98.24153 | 23148 ft | 345 kts | 268° |
| 2026-05-07 03:44 | 35.37289 | -98.27094 | 23932 ft | 344 kts | 266° |
| 2026-05-07 03:44 | 35.37315 | -98.29989 | 24642 ft | 345 kts | 266° |
| 2026-05-07 03:44 | 35.37344 | -98.32933 | 25328 ft | 347 kts | 266° |
| 2026-05-07 03:45 | 35.37394 | -98.35896 | 26043 ft | 348 kts | 266° |
| 2026-05-07 03:45 | 35.37456 | -98.38865 | 26733 ft | 348 kts | 266° |
| 2026-05-07 03:45 | 35.37513 | -98.41844 | 27338 ft | 350 kts | 266° |
| 2026-05-07 03:45 | 35.37564 | -98.44834 | 27944 ft | 352 kts | 266° |
| 2026-05-07 03:46 | 35.37608 | -98.47836 | 28520 ft | 353 kts | 265° |
| 2026-05-07 03:46 | 35.37652 | -98.50844 | 29110 ft | 355 kts | 265° |
| 2026-05-07 03:46 | 35.37702 | -98.53877 | 29692 ft | 356 kts | 265° |
| 2026-05-07 03:46 | 35.37753 | -98.56909 | 30221 ft | 357 kts | 265° |
| 2026-05-07 03:47 | 35.37801 | -98.59960 | 30803 ft | 358 kts | 265° |
| 2026-05-07 03:47 | 35.37846 | -98.63018 | 31279 ft | 360 kts | 265° |
| 2026-05-07 03:47 | 35.37891 | -98.66073 | 31961 ft | 357 kts | 265° |
| 2026-05-07 03:47 | 35.37937 | -98.69105 | 32617 ft | 355 kts | 265° |
| 2026-05-07 03:48 | 35.37982 | -98.72121 | 33229 ft | 353 kts | 264° |
| 2026-05-07 03:48 | 35.38023 | -98.75020 | 33808 ft | 352 kts | 264° |
| 2026-05-07 03:48 | 35.38064 | -98.78102 | 34468 ft | 349 kts | 263° |
| 2026-05-07 03:48 | 35.38102 | -98.81035 | 35052 ft | 348 kts | 263° |
| 2026-05-07 03:49 | 35.38102 | -98.81054 | 35055 ft | 348 kts | 263° |
| 2026-05-07 03:49 | 35.38123 | -98.82468 | 35461 ft | 343 kts | 263° |
| 2026-05-07 03:50 | 35.38172 | -98.85154 | 36191 ft | 336 kts | 264° |
| 2026-05-07 03:50 | 35.38209 | -98.88034 | 36509 ft | 340 kts | 263° |
| 2026-05-07 03:50 | 35.38232 | -98.90950 | 36923 ft | 342 kts | 263° |
| 2026-05-07 03:50 | 35.38263 | -98.93860 | 37521 ft | 340 kts | 263° |
| 2026-05-07 03:51 | 35.38302 | -98.96720 | 38107 ft | 338 kts | 264° |
| 2026-05-07 03:51 | 35.38341 | -98.99629 | 38674 ft | 335 kts | 264° |
| 2026-05-07 03:51 | 35.38374 | -99.02442 | 39128 ft | 334 kts | 263° |
| 2026-05-07 03:51 | 35.38405 | -99.05293 | 39545 ft | 334 kts | 263° |
| 2026-05-07 03:52 | 35.38434 | -99.08146 | 39925 ft | 337 kts | 264° |
| 2026-05-07 03:52 | 35.38465 | -99.11032 | 40307 ft | 339 kts | 264° |
| 2026-05-07 03:52 | 35.38498 | -99.13929 | 40726 ft | 340 kts | 264° |
| 2026-05-07 03:52 | 35.38530 | -99.16834 | 41122 ft | 341 kts | 264° |
| 2026-05-07 03:53 | 35.38446 | -99.19700 | 41434 ft | 342 kts | 261° |
| 2026-05-07 03:53 | 35.38285 | -99.22610 | 41806 ft | 343 kts | 261° |
| 2026-05-07 03:53 | 35.38136 | -99.25539 | 42204 ft | 344 kts | 262° |
| 2026-05-07 03:53 | 35.37998 | -99.28476 | 42544 ft | 346 kts | 262° |
| 2026-05-07 03:54 | 35.37856 | -99.31432 | 42860 ft | 349 kts | 262° |
| 2026-05-07 03:54 | 35.37703 | -99.34404 | 43199 ft | 350 kts | 262° |
| 2026-05-07 03:54 | 35.37548 | -99.37388 | 43529 ft | 352 kts | 263° |
| 2026-05-07 03:54 | 35.37396 | -99.40384 | 43822 ft | 354 kts | 263° |
| 2026-05-07 03:55 | 35.37244 | -99.43410 | 44130 ft | 356 kts | 263° |
| 2026-05-07 03:55 | 35.37090 | -99.46436 | 44423 ft | 357 kts | 263° |
| 2026-05-07 03:55 | 35.36933 | -99.49482 | 44690 ft | 359 kts | 263° |
| 2026-05-07 03:55 | 35.36772 | -99.52552 | 44906 ft | 362 kts | 263° |
| 2026-05-07 03:56 | 35.36610 | -99.55644 | 45141 ft | 365 kts | 263° |
| 2026-05-07 03:56 | 35.36448 | -99.58749 | 45399 ft | 366 kts | 263° |
| 2026-05-07 03:56 | 35.36285 | -99.61875 | 45632 ft | 368 kts | 263° |
| 2026-05-07 03:56 | 35.36119 | -99.65018 | 45826 ft | 371 kts | 264° |
| 2026-05-07 03:57 | 35.35949 | -99.68183 | 46039 ft | 373 kts | 264° |
| 2026-05-07 03:57 | 35.35780 | -99.71354 | 46273 ft | 374 kts | 264° |
| 2026-05-07 03:57 | 35.35612 | -99.74500 | 46469 ft | 375 kts | 264° |
| 2026-05-07 03:57 | 35.35441 | -99.77697 | 46642 ft | 377 kts | 264° |
| 2026-05-07 03:58 | 35.35264 | -99.80915 | 46810 ft | 379 kts | 264° |
| 2026-05-07 03:58 | 35.35088 | -99.84136 | 46911 ft | 380 kts | 264° |
| 2026-05-07 03:58 | 35.34911 | -99.87381 | 46950 ft | 382 kts | 264° |
| 2026-05-07 03:59 | 35.34555 | -99.93878 | 47112 ft | 381 kts | 264° |
| 2026-05-07 03:59 | 35.34191 | -100.00368 | 47167 ft | 384 kts | 264° |
| 2026-05-07 04:00 | 35.33822 | -100.06942 | 47169 ft | 389 kts | 264° |
| 2026-05-07 04:00 | 35.33445 | -100.13588 | 47183 ft | 393 kts | 264° |
| 2026-05-07 04:01 | 35.33062 | -100.20255 | 47194 ft | 397 kts | 264° |
| 2026-05-07 04:01 | 35.32670 | -100.27048 | 47189 ft | 401 kts | 264° |
| 2026-05-07 04:02 | 35.32269 | -100.33900 | 47196 ft | 405 kts | 264° |
| 2026-05-07 04:02 | 35.31860 | -100.40815 | 47200 ft | 409 kts | 264° |
| 2026-05-07 04:03 | 35.31444 | -100.47789 | 47213 ft | 412 kts | 264° |
| 2026-05-07 04:03 | 35.31021 | -100.54825 | 47217 ft | 416 kts | 264° |
| 2026-05-07 04:04 | 35.30589 | -100.61921 | 47222 ft | 419 kts | 264° |
| 2026-05-07 04:04 | 35.30152 | -100.69062 | 47231 ft | 422 kts | 264° |
| 2026-05-07 04:05 | 35.29707 | -100.76213 | 47228 ft | 424 kts | 264° |
| 2026-05-07 04:05 | 35.29255 | -100.83440 | 47230 ft | 427 kts | 264° |
| 2026-05-07 04:06 | 35.28797 | -100.90698 | 47228 ft | 428 kts | 264° |
| 2026-05-07 04:06 | 35.28332 | -100.97984 | 47225 ft | 430 kts | 263° |
| 2026-05-07 04:07 | 35.27862 | -101.05289 | 47226 ft | 431 kts | 263° |
| 2026-05-07 04:07 | 35.27385 | -101.12617 | 47228 ft | 432 kts | 263° |
| 2026-05-07 04:08 | 35.26902 | -101.19976 | 47229 ft | 434 kts | 263° |
| 2026-05-07 04:08 | 35.26418 | -101.27296 | 47220 ft | 435 kts | 263° |
| 2026-05-07 04:09 | 35.25924 | -101.34674 | 47218 ft | 436 kts | 263° |
| 2026-05-07 04:09 | 35.25425 | -101.42072 | 47220 ft | 437 kts | 263° |
| 2026-05-07 04:10 | 35.24921 | -101.49484 | 47204 ft | 438 kts | 263° |
| 2026-05-07 04:10 | 35.24410 | -101.56911 | 47202 ft | 438 kts | 263° |
| 2026-05-07 04:11 | 35.23894 | -101.64358 | 47204 ft | 439 kts | 263° |
| 2026-05-07 04:11 | 35.23451 | -101.71823 | 47190 ft | 441 kts | 266° |
| 2026-05-07 04:12 | 35.23321 | -101.79321 | 47203 ft | 441 kts | 266° |
| 2026-05-07 04:12 | 35.23156 | -101.86784 | 47207 ft | 442 kts | 266° |
| 2026-05-07 04:13 | 35.22991 | -101.94324 | 47208 ft | 443 kts | 266° |
| 2026-05-07 04:13 | 35.22830 | -102.01866 | 47209 ft | 443 kts | 266° |
| 2026-05-07 04:14 | 35.22678 | -102.08131 | 47206 ft | 444 kts | 266° |
| 2026-05-07 04:14 | 35.22506 | -102.15694 | 47206 ft | 445 kts | 266° |
| 2026-05-07 04:15 | 35.22322 | -102.23274 | 47207 ft | 446 kts | 266° |
| 2026-05-07 04:15 | 35.22133 | -102.30860 | 47207 ft | 447 kts | 266° |
| 2026-05-07 04:16 | 35.21945 | -102.38459 | 47209 ft | 447 kts | 266° |
| 2026-05-07 04:16 | 35.21743 | -102.46060 | 47211 ft | 447 kts | 266° |
| 2026-05-07 04:17 | 35.21545 | -102.53630 | 47212 ft | 448 kts | 266° |
| 2026-05-07 04:17 | 35.21336 | -102.61244 | 47214 ft | 448 kts | 266° |
| 2026-05-07 04:18 | 35.21123 | -102.68867 | 47215 ft | 448 kts | 266° |
| 2026-05-07 04:18 | 35.20908 | -102.76495 | 47217 ft | 448 kts | 266° |
| 2026-05-07 04:19 | 35.20687 | -102.84059 | 47228 ft | 448 kts | 266° |
| 2026-05-07 04:19 | 35.20461 | -102.91693 | 47225 ft | 449 kts | 266° |
| 2026-05-07 04:20 | 35.20228 | -102.99315 | 47237 ft | 449 kts | 266° |
| 2026-05-07 04:20 | 35.19992 | -103.06945 | 47235 ft | 449 kts | 266° |
| 2026-05-07 04:21 | 35.19628 | -103.18397 | 47235 ft | 449 kts | 266° |
| 2026-05-07 04:21 | 35.19381 | -103.25979 | 47235 ft | 449 kts | 266° |
| 2026-05-07 04:22 | 35.19130 | -103.33606 | 47234 ft | 449 kts | 265° |
| 2026-05-07 04:22 | 35.18869 | -103.41244 | 47229 ft | 450 kts | 266° |
| 2026-05-07 04:23 | 35.18608 | -103.48879 | 47228 ft | 450 kts | 266° |
| 2026-05-07 04:23 | 35.18341 | -103.56517 | 47234 ft | 450 kts | 265° |
| 2026-05-07 04:24 | 35.18053 | -103.64157 | 47233 ft | 450 kts | 265° |
| 2026-05-07 04:24 | 35.17694 | -103.71788 | 47233 ft | 450 kts | 265° |
| 2026-05-07 04:25 | 35.17367 | -103.79432 | 47232 ft | 450 kts | 265° |
| 2026-05-07 04:25 | 35.17023 | -103.87076 | 47235 ft | 450 kts | 265° |
| 2026-05-07 04:26 | 35.16672 | -103.94663 | 47240 ft | 450 kts | 265° |
| 2026-05-07 04:26 | 35.16329 | -104.02298 | 47229 ft | 450 kts | 265° |
| 2026-05-07 04:27 | 35.15964 | -104.09938 | 47229 ft | 449 kts | 265° |
| 2026-05-07 04:27 | 35.15605 | -104.17566 | 47227 ft | 449 kts | 265° |
| 2026-05-07 04:28 | 35.15238 | -104.25193 | 47227 ft | 450 kts | 265° |
| 2026-05-07 04:28 | 35.14869 | -104.32821 | 47224 ft | 449 kts | 265° |
| 2026-05-07 04:29 | 35.14491 | -104.40440 | 47225 ft | 449 kts | 265° |
| 2026-05-07 04:29 | 35.14109 | -104.48073 | 47220 ft | 450 kts | 265° |
| 2026-05-07 04:30 | 35.13726 | -104.55665 | 47215 ft | 450 kts | 265° |
| 2026-05-07 04:30 | 35.13338 | -104.63281 | 47217 ft | 450 kts | 265° |
| 2026-05-07 04:31 | 35.12941 | -104.70912 | 47217 ft | 449 kts | 265° |
| 2026-05-07 04:31 | 35.12546 | -104.78522 | 47223 ft | 449 kts | 265° |
| 2026-05-07 04:32 | 35.12135 | -104.86149 | 47230 ft | 449 kts | 265° |
| 2026-05-07 04:32 | 35.11727 | -104.93785 | 46802 ft | 459 kts | 264° |
| 2026-05-07 04:33 | 35.11512 | -104.97732 | 46194 ft | 470 kts | 265° |
| 2026-05-07 04:33 | 35.11296 | -105.01711 | 45562 ft | 467 kts | 264° |
| 2026-05-07 04:33 | 35.10959 | -105.05635 | 44926 ft | 461 kts | 260° |
| 2026-05-07 04:33 | 35.10409 | -105.09415 | 44339 ft | 453 kts | 259° |
| 2026-05-07 04:34 | 35.09863 | -105.13146 | 43737 ft | 437 kts | 259° |
| 2026-05-07 04:34 | 35.09367 | -105.16750 | 43159 ft | 424 kts | 259° |
| 2026-05-07 04:34 | 35.08898 | -105.20261 | 42600 ft | 415 kts | 259° |
| 2026-05-07 04:34 | 35.08419 | -105.23703 | 42054 ft | 410 kts | 259° |
| 2026-05-07 04:35 | 35.07922 | -105.27133 | 41514 ft | 410 kts | 258° |
| 2026-05-07 04:35 | 35.07425 | -105.30576 | 40970 ft | 413 kts | 258° |
| 2026-05-07 04:35 | 35.06937 | -105.34035 | 40423 ft | 413 kts | 258° |
| 2026-05-07 04:35 | 35.06456 | -105.37489 | 39873 ft | 412 kts | 258° |
| 2026-05-07 04:36 | 35.05968 | -105.40925 | 39325 ft | 410 kts | 258° |
| 2026-05-07 04:36 | 35.05474 | -105.44354 | 38794 ft | 410 kts | 258° |
| 2026-05-07 04:36 | 35.04979 | -105.47777 | 38241 ft | 410 kts | 258° |
| 2026-05-07 04:36 | 35.04490 | -105.51201 | 37698 ft | 410 kts | 258° |
| 2026-05-07 04:37 | 35.04003 | -105.54596 | 37157 ft | 412 kts | 258° |
| 2026-05-07 04:37 | 35.03506 | -105.58049 | 36608 ft | 413 kts | 258° |
| 2026-05-07 04:37 | 35.03006 | -105.61506 | 36058 ft | 415 kts | 258° |
| 2026-05-07 04:37 | 35.02499 | -105.65002 | 35502 ft | 421 kts | 258° |
| 2026-05-07 04:38 | 35.01983 | -105.68546 | 34939 ft | 427 kts | 258° |
| 2026-05-07 04:38 | 35.01463 | -105.72140 | 34366 ft | 432 kts | 258° |
| 2026-05-07 04:38 | 35.00939 | -105.75758 | 33796 ft | 434 kts | 258° |
| 2026-05-07 04:38 | 35.00409 | -105.79401 | 33214 ft | 435 kts | 258° |
| 2026-05-07 04:39 | 34.99875 | -105.83045 | 32628 ft | 437 kts | 258° |
| 2026-05-07 04:39 | 34.99337 | -105.86712 | 32043 ft | 440 kts | 258° |
| 2026-05-07 04:39 | 34.98795 | -105.90395 | 31448 ft | 442 kts | 258° |
| 2026-05-07 04:39 | 34.98250 | -105.94095 | 30853 ft | 444 kts | 258° |
| 2026-05-07 04:40 | 34.97702 | -105.97816 | 30267 ft | 447 kts | 258° |
| 2026-05-07 04:40 | 34.97154 | -106.01536 | 29673 ft | 453 kts | 258° |
| 2026-05-07 04:40 | 34.96591 | -106.05332 | 29070 ft | 456 kts | 259° |
| 2026-05-07 04:40 | 34.96039 | -106.09175 | 28454 ft | 464 kts | 261° |
| 2026-05-07 04:41 | 34.95952 | -106.13118 | 27822 ft | 467 kts | 272° |
| 2026-05-07 04:41 | 34.96392 | -106.17036 | 27224 ft | 467 kts | 277° |
| 2026-05-07 04:41 | 34.96960 | -106.20922 | 26605 ft | 465 kts | 278° |
| 2026-05-07 04:41 | 34.97462 | -106.24814 | 25983 ft | 463 kts | 277° |
| 2026-05-07 04:42 | 34.97873 | -106.28693 | 25360 ft | 461 kts | 276° |
| 2026-05-07 04:42 | 34.98299 | -106.32567 | 24740 ft | 461 kts | 277° |
| 2026-05-07 04:42 | 34.98787 | -106.36381 | 24134 ft | 459 kts | 279° |
| 2026-05-07 04:42 | 34.99279 | -106.39982 | 23554 ft | 458 kts | 279° |
| 2026-05-07 04:43 | 34.99778 | -106.43795 | 22941 ft | 455 kts | 279° |
| 2026-05-07 04:43 | 35.00234 | -106.47591 | 22338 ft | 448 kts | 278° |
| 2026-05-07 04:43 | 35.00684 | -106.51329 | 21741 ft | 443 kts | 279° |
| 2026-05-07 04:43 | 35.01623 | -106.54874 | 21089 ft | 440 kts | 296° |
| 2026-05-07 04:44 | 35.03493 | -106.57806 | 20534 ft | 439 kts | 315° |
| 2026-05-07 04:44 | 35.06085 | -106.59745 | 20003 ft | 442 kts | 335° |
| 2026-05-07 04:44 | 35.09116 | -106.60456 | 19495 ft | 448 kts | 355° |
| 2026-05-07 04:44 | 35.12198 | -106.59817 | 18997 ft | 455 kts | 15° |
| 2026-05-07 04:45 | 35.14955 | -106.57882 | 18515 ft | 462 kts | 36° |
| 2026-05-07 04:45 | 35.17283 | -106.55173 | 18101 ft | 462 kts | 41° |
| 2026-05-07 04:45 | 35.19604 | -106.52457 | 17320 ft | 463 kts | 40° |
| 2026-05-07 04:45 | 35.22120 | -106.50127 | 16311 ft | 445 kts | 24° |
| 2026-05-07 04:46 | 35.24982 | -106.49186 | 15721 ft | 423 kts | 0° |
| 2026-05-07 04:46 | 35.27847 | -106.49705 | 15260 ft | 413 kts | 338° |
| 2026-05-07 04:46 | 35.30196 | -106.51471 | 14852 ft | 382 kts | 315° |
| 2026-05-07 04:46 | 35.31599 | -106.54029 | 14491 ft | 349 kts | 291° |
| 2026-05-07 04:47 | 35.31915 | -106.56887 | 14145 ft | 335 kts | 269° |
| 2026-05-07 04:47 | 35.31590 | -106.59737 | 13794 ft | 341 kts | 261° |
| 2026-05-07 04:47 | 35.31170 | -106.62598 | 13371 ft | 342 kts | 262° |
| 2026-05-07 04:47 | 35.30952 | -106.65422 | 13133 ft | 318 kts | 273° |
| 2026-05-07 04:48 | 35.31541 | -106.67867 | 13112 ft | 286 kts | 295° |
| 2026-05-07 04:48 | 35.32501 | -106.69888 | 13182 ft | 267 kts | 303° |
| 2026-05-07 04:48 | 35.33685 | -106.71669 | 13181 ft | 274 kts | 311° |
| 2026-05-07 04:48 | 35.35113 | -106.73189 | 13183 ft | 278 kts | 321° |
| 2026-05-07 04:49 | 35.36777 | -106.74421 | 13182 ft | 281 kts | 330° |
| 2026-05-07 04:49 | 35.38612 | -106.75297 | 13195 ft | 284 kts | 340° |
| 2026-05-07 04:49 | 35.40556 | -106.75783 | 13194 ft | 288 kts | 349° |
| 2026-05-07 04:49 | 35.42573 | -106.75854 | 13192 ft | 292 kts | 359° |
| 2026-05-07 04:50 | 35.44589 | -106.75493 | 13189 ft | 292 kts | 8° |
| 2026-05-07 04:50 | 35.46436 | -106.74745 | 13197 ft | 258 kts | 17° |
| 2026-05-07 04:50 | 35.47867 | -106.73846 | 13161 ft | 210 kts | 23° |
| 2026-05-07 04:50 | 35.49059 | -106.72875 | 13167 ft | 209 kts | 32° |
| 2026-05-07 04:51 | 35.50118 | -106.71594 | 13183 ft | 217 kts | 44° |
| 2026-05-07 04:51 | 35.50974 | -106.70032 | 13192 ft | 223 kts | 57° |
| 2026-05-07 04:51 | 35.51566 | -106.68255 | 13195 ft | 227 kts | 70° |
| 2026-05-07 04:51 | 35.51852 | -106.66336 | 13193 ft | 231 kts | 83° |
| 2026-05-07 04:52 | 35.51806 | -106.64365 | 13193 ft | 231 kts | 96° |
| 2026-05-07 04:52 | 35.51423 | -106.62444 | 13193 ft | 232 kts | 110° |
| 2026-05-07 04:52 | 35.50733 | -106.60689 | 13203 ft | 231 kts | 123° |
| 2026-05-07 04:52 | 35.49741 | -106.59120 | 13218 ft | 229 kts | 136° |
| 2026-05-07 04:53 | 35.48546 | -106.57879 | 13217 ft | 226 kts | 150° |
| 2026-05-07 04:53 | 35.47179 | -106.56968 | 13206 ft | 222 kts | 162° |
| 2026-05-07 04:53 | 35.45713 | -106.56423 | 13201 ft | 218 kts | 175° |
| 2026-05-07 04:53 | 35.44194 | -106.56248 | 13183 ft | 224 kts | 186° |
| 2026-05-07 04:54 | 35.42624 | -106.56461 | 13194 ft | 231 kts | 198° |
| 2026-05-07 04:54 | 35.41080 | -106.57088 | 13205 ft | 236 kts | 210° |
| 2026-05-07 04:54 | 35.39625 | -106.58059 | 13215 ft | 241 kts | 216° |
| 2026-05-07 04:54 | 35.38142 | -106.59089 | 13209 ft | 248 kts | 214° |
| 2026-05-07 04:55 | 35.36617 | -106.60112 | 13215 ft | 252 kts | 214° |
| 2026-05-07 04:55 | 35.35069 | -106.61140 | 13223 ft | 254 kts | 214° |
| 2026-05-07 04:55 | 35.33513 | -106.62183 | 13215 ft | 256 kts | 214° |
| 2026-05-07 04:55 | 35.31863 | -106.63309 | 13233 ft | 288 kts | 214° |
| 2026-05-07 04:56 | 35.30078 | -106.64547 | 13227 ft | 296 kts | 216° |
| 2026-05-07 04:56 | 35.28326 | -106.65882 | 13209 ft | 297 kts | 216° |
| 2026-05-07 04:56 | 35.26584 | -106.67178 | 13206 ft | 297 kts | 216° |
| 2026-05-07 04:56 | 35.24815 | -106.68498 | 13201 ft | 298 kts | 216° |
| 2026-05-07 04:57 | 35.23048 | -106.69835 | 13202 ft | 297 kts | 216° |
| 2026-05-07 04:57 | 35.21353 | -106.71087 | 12987 ft | 275 kts | 216° |
| 2026-05-07 04:57 | 35.19830 | -106.72197 | 12186 ft | 223 kts | 216° |
| 2026-05-07 04:57 | 35.18650 | -106.73250 | 10636 ft | 203 kts | 227° |
| 2026-05-07 04:58 | 35.17692 | -106.74468 | 8625 ft | 198 kts | 232° |
| 2026-05-07 04:58 | 35.17023 | -106.75895 | 5664 ft | 214 kts | 252° |
| 2026-05-07 04:58 | 35.16553 | -106.76819 | 7258 ft | 93 kts | 226° |
| 2026-05-07 04:58 | 35.16111 | -106.77611 | 7064 ft | 134 kts | 244° |
| 2026-05-07 04:59 | 35.15569 | -106.78702 | 5982 ft | 161 kts | 237° |
| 2026-05-07 04:59 | 35.14900 | -106.79627 | 5825 ft | 125 kts | 225° |
| 2026-05-07 04:59 | 35.14369 | -106.80271 | 5836 ft | 84 kts | 226° |
| 2026-05-07 04:59 | 35.14169 | -106.80529 | 5837 ft | 0 kts | 226° |